Time;durP1;ratioP1;P1;durP2;ratioP2;P2;SDS_P1;SDS_P2;PMS_P1;PMS_P2;Temp;Humidity;BMP_temperature;BMP_pressure;BME280_temperature;BME280_humidity;BME280_pressure;Samples;Min_cycle;Max_cycle;Signal;HPM_P1;HPM_P2
2021/06/26 00:00:32;;;;;;;14.85;3.80;;;23.20;99.90;;;;;;5076005;28;20021;-81
2021/06/26 00:02:58;;;;;;;16.60;3.13;;;23.20;99.90;;;;;;5077454;28;20339;-80
2021/06/26 00:05:24;;;;;;;17.33;3.63;;;23.10;99.90;;;;;;5075341;28;20024;-80
2021/06/26 00:07:50;;;;;;;14.75;3.50;;;23.10;99.90;;;;;;5076969;28;20028;-80
2021/06/26 00:10:16;;;;;;;17.60;3.58;;;23.00;99.90;;;;;;5076749;28;20109;-80
2021/06/26 00:12:42;;;;;;;14.93;3.47;;;23.10;99.90;;;;;;5075322;28;20078;-81
2021/06/26 00:15:10;;;;;;;15.93;3.55;;;23.00;99.90;;;;;;5076739;28;20470;-80
2021/06/26 00:17:35;;;;;;;15.05;3.53;;;22.90;99.90;;;;;;5075437;28;20416;-80
2021/06/26 00:20:03;;;;;;;12.52;3.40;;;22.80;99.90;;;;;;5075407;28;20021;-81
2021/06/26 00:22:28;;;;;;;17.70;4.63;;;22.80;99.90;;;;;;5076115;28;20021;-79
2021/06/26 00:24:54;;;;;;;20.75;4.47;;;22.70;99.90;;;;;;5076501;28;20162;-80
2021/06/26 00:27:20;;;;;;;18.83;4.10;;;22.70;99.90;;;;;;5075094;28;20025;-80
2021/06/26 00:29:46;;;;;;;21.33;4.28;;;22.70;99.90;;;;;;5076009;28;20498;-80
2021/06/26 00:32:12;;;;;;;17.42;3.47;;;22.60;99.90;;;;;;5075003;28;20115;-79
2021/06/26 00:34:38;;;;;;;13.98;3.75;;;22.60;99.90;;;;;;5076512;28;20025;-78
2021/06/26 00:37:04;;;;;;;20.98;3.70;;;22.50;99.90;;;;;;5076551;28;20031;-80
2021/06/26 00:39:30;;;;;;;17.75;4.32;;;22.60;99.90;;;;;;5074954;28;20075;-80
2021/06/26 00:41:56;;;;;;;17.23;3.95;;;22.60;99.90;;;;;;5076242;28;20017;-80
2021/06/26 00:44:27;;;;;;;20.25;3.67;;;22.60;99.90;;;;;;5075638;28;20340;-80
2021/06/26 00:46:53;;;;;;;14.23;3.40;;;22.60;99.90;;;;;;5076566;28;20086;-78
2021/06/26 00:49:19;;;;;;;16.83;3.47;;;22.50;99.90;;;;;;5076144;28;20024;-79
2021/06/26 00:51:45;;;;;;;15.73;3.55;;;22.50;99.90;;;;;;5076367;28;20021;-78
2021/06/26 00:54:11;;;;;;;14.30;3.78;;;22.50;99.90;;;;;;5075755;28;20366;-79
2021/06/26 00:56:37;;;;;;;16.85;3.95;;;22.30;99.90;;;;;;5075796;28;20024;-80
2021/06/26 00:59:03;;;;;;;17.92;3.47;;;22.20;99.90;;;;;;5074668;28;20023;-79
2021/06/26 01:01:29;;;;;;;14.85;3.33;;;22.30;99.90;;;;;;5076110;28;20021;-79
2021/06/26 01:03:55;;;;;;;19.42;4.10;;;22.20;99.90;;;;;;5074795;28;20025;-79
2021/06/26 01:06:21;;;;;;;15.48;3.25;;;22.20;99.90;;;;;;5076312;28;20099;-80
2021/06/26 01:08:47;;;;;;;14.13;4.05;;;22.10;99.90;;;;;;5074029;28;20025;-79
2021/06/26 01:11:13;;;;;;;15.98;4.00;;;22.20;99.90;;;;;;5075600;28;20359;-79
2021/06/26 01:13:39;;;;;;;16.98;4.10;;;21.90;99.90;;;;;;5074244;28;20056;-79
2021/06/26 01:16:05;;;;;;;14.75;3.90;;;21.70;99.90;;;;;;5074359;28;20025;-79
2021/06/26 01:18:31;;;;;;;18.48;4.32;;;21.60;99.90;;;;;;5075464;28;20016;-79
2021/06/26 01:20:57;;;;;;;19.42;3.97;;;21.50;99.90;;;;;;5074137;28;20105;-80
2021/06/26 01:23:25;;;;;;;18.70;4.40;;;21.30;99.90;;;;;;5075433;28;20051;-80
2021/06/26 01:25:51;;;;;;;15.18;4.13;;;21.40;99.90;;;;;;5074091;28;20035;-80
2021/06/26 01:28:17;;;;;;;44.22;28.42;;;21.50;99.90;;;;;;5075835;28;20021;-79
2021/06/26 01:30:43;;;;;;;36.45;21.05;;;21.40;99.90;;;;;;5074002;28;20025;-79
2021/06/26 01:33:08;;;;;;;20.13;7.25;;;21.30;99.90;;;;;;5075383;28;20032;-79
2021/06/26 01:35:34;;;;;;;19.65;5.07;;;21.40;99.90;;;;;;5075214;28;20020;-80
2021/06/26 01:38:03;;;;;;;18.15;4.82;;;21.40;99.90;;;;;;5075364;28;20078;-80
2021/06/26 01:40:30;;;;;;;18.60;5.20;;;21.50;99.90;;;;;;5075058;28;20020;-80
2021/06/26 01:42:56;;;;;;;16.52;4.60;;;21.70;99.90;;;;;;5075107;28;20047;-80
2021/06/26 01:45:23;;;;;;;14.48;3.92;;;21.60;99.90;;;;;;5073601;28;20025;-79
2021/06/26 01:47:57;;;;;;;15.07;4.10;;;21.60;99.90;;;;;;5073512;28;20106;-80
2021/06/26 01:50:26;;;;;;;19.30;3.90;;;21.60;99.90;;;;;;5074896;28;20079;-79
2021/06/26 01:52:52;;;;;;;18.27;4.13;;;21.50;99.90;;;;;;5075020;28;20486;-80
2021/06/26 01:55:20;;;;;;;20.05;4.45;;;21.20;99.90;;;;;;5074689;28;20068;-80
2021/06/26 01:57:47;;;;;;;17.17;4.97;;;21.10;99.90;;;;;;5073516;28;20020;-80
2021/06/26 02:00:14;;;;;;;14.50;4.13;;;21.10;99.90;;;;;;5074681;28;20114;-80
2021/06/26 02:02:40;;;;;;;15.63;4.18;;;21.10;99.90;;;;;;5074565;28;20099;-79
2021/06/26 02:05:07;;;;;;;15.75;4.28;;;21.20;99.90;;;;;;5073370;28;20554;-80
2021/06/26 02:07:34;;;;;;;18.40;4.07;;;21.10;99.90;;;;;;5073339;28;20025;-79
2021/06/26 02:10:00;;;;;;;16.98;4.07;;;21.10;99.90;;;;;;5074911;28;20458;-80
2021/06/26 02:12:26;;;;;;;22.67;4.60;;;21.20;99.90;;;;;;5074301;28;20424;-80
2021/06/26 02:14:53;;;;;;;17.88;4.30;;;20.90;99.90;;;;;;5073322;28;20390;-80
2021/06/26 02:17:21;;;;;;;21.80;5.47;;;21.00;99.90;;;;;;5074451;28;20030;-80
2021/06/26 02:19:50;;;;;;;16.67;4.30;;;21.00;99.90;;;;;;5074274;28;20020;-80
2021/06/26 02:22:18;;;;;;;18.52;4.90;;;20.90;99.90;;;;;;5073936;28;20374;-80
2021/06/26 02:24:44;;;;;;;22.55;5.10;;;20.60;99.90;;;;;;5073052;28;20048;-80
2021/06/26 02:27:10;;;;;;;14.57;4.18;;;20.70;99.90;;;;;;5072983;28;20051;-80
2021/06/26 02:29:36;;;;;;;19.45;4.80;;;20.80;99.90;;;;;;5072660;28;20048;-79
2021/06/26 02:32:03;;;;;;;17.70;5.30;;;20.80;99.90;;;;;;5073134;28;20544;-79
2021/06/26 02:34:29;;;;;;;17.63;4.50;;;20.90;99.90;;;;;;5074196;28;20032;-79
2021/06/26 02:36:55;;;;;;;15.93;4.40;;;20.80;99.90;;;;;;5072715;28;20031;-80
2021/06/26 02:39:21;;;;;;;15.73;5.20;;;20.70;99.90;;;;;;5072621;28;20555;-80
2021/06/26 02:41:47;;;;;;;21.25;5.25;;;20.90;99.90;;;;;;5072565;28;20024;-79
2021/06/26 02:44:13;;;;;;;17.35;4.97;;;20.90;99.90;;;;;;5072781;28;20017;-78
2021/06/26 02:46:39;;;;;;;17.63;5.03;;;20.90;99.90;;;;;;5074136;28;20076;-78
2021/06/26 02:49:05;;;;;;;17.63;5.03;;;21.00;99.90;;;;;;5072534;28;20442;-78
2021/06/26 02:51:31;;;;;;;15.93;4.65;;;21.00;99.90;;;;;;5073658;28;20081;-78
2021/06/26 02:53:57;;;;;;;11.95;4.47;;;20.90;99.90;;;;;;5073792;28;20025;-80
2021/06/26 02:56:23;;;;;;;18.25;4.93;;;20.90;99.90;;;;;;5072563;28;20170;-78
2021/06/26 02:58:49;;;;;;;20.65;7.50;;;21.00;99.90;;;;;;5073938;28;20021;-77
2021/06/26 03:01:15;;;;;;;57.67;37.22;;;21.00;99.90;;;;;;5074073;28;20020;-77
2021/06/26 03:03:41;;;;;;;25.73;8.20;;;20.90;99.90;;;;;;5072683;28;20025;-78
2021/06/26 03:06:07;;;;;;;22.60;8.25;;;20.90;99.90;;;;;;5074045;28;20109;-77
2021/06/26 03:08:33;;;;;;;21.20;6.13;;;20.90;99.90;;;;;;5073761;28;20074;-81
2021/06/26 03:10:59;;;;;;;16.48;5.10;;;20.70;99.90;;;;;;5073674;28;20024;-79
2021/06/26 03:13:25;;;;;;;15.73;5.35;;;20.60;99.90;;;;;;5074097;28;20482;-79
2021/06/26 03:15:52;;;;;;;18.45;5.28;;;20.60;99.90;;;;;;5072217;28;20059;-79
2021/06/26 03:18:19;;;;;;;15.88;4.93;;;20.70;99.90;;;;;;5073782;28;20025;-79
2021/06/26 03:20:45;;;;;;;15.13;4.45;;;20.70;99.90;;;;;;5073378;28;20024;-79
2021/06/26 03:23:11;;;;;;;17.30;5.00;;;20.60;99.90;;;;;;5073557;28;20044;-80
2021/06/26 03:25:37;;;;;;;19.13;5.00;;;20.60;99.90;;;;;;5072243;28;20020;-79
2021/06/26 03:28:03;;;;;;;17.48;4.72;;;20.70;99.90;;;;;;5072822;28;20107;-79
2021/06/26 03:30:29;;;;;;;14.48;4.47;;;20.80;99.90;;;;;;5072047;28;20021;-80
2021/06/26 03:32:56;;;;;;;13.73;5.20;;;20.90;99.90;;;;;;5073157;28;20051;-80
2021/06/26 03:35:22;;;;;;;19.17;5.38;;;20.90;99.90;;;;;;5076267;28;20020;-80
2021/06/26 03:37:48;;;;;;;14.82;5.47;;;20.90;99.90;;;;;;5076214;28;20159;-80
2021/06/26 03:40:14;;;;;;;20.55;5.40;;;20.90;99.90;;;;;;5077455;28;20024;-79
2021/06/26 03:42:40;;;;;;;15.73;4.97;;;20.90;99.90;;;;;;5075838;28;20385;-79
2021/06/26 03:45:08;;;;;;;17.45;4.78;;;20.80;99.90;;;;;;5076935;28;20031;-79
2021/06/26 03:47:34;;;;;;;14.63;4.60;;;20.80;99.90;;;;;;5077160;28;20081;-79
2021/06/26 03:50:00;;;;;;;14.50;4.70;;;20.80;99.90;;;;;;5075928;28;20028;-80
2021/06/26 03:52:26;;;;;;;13.63;4.68;;;20.80;99.90;;;;;;5075905;28;20036;-79
2021/06/26 03:54:52;;;;;;;17.20;4.80;;;20.90;99.90;;;;;;5075774;28;20031;-80
2021/06/26 03:57:18;;;;;;;17.88;4.70;;;21.00;99.90;;;;;;5075857;28;20028;-81
2021/06/26 03:59:44;;;;;;;15.65;4.53;;;20.90;99.90;;;;;;5075652;28;20021;-80
2021/06/26 04:02:10;;;;;;;13.90;4.28;;;21.00;99.90;;;;;;5075567;28;20020;-80
2021/06/26 04:04:37;;;;;;;15.07;4.68;;;20.90;99.90;;;;;;5075598;28;20035;-79
2021/06/26 04:07:04;;;;;;;15.07;4.38;;;21.00;99.90;;;;;;5077027;28;20063;-80
2021/06/26 04:09:30;;;;;;;14.27;4.30;;;21.10;99.90;;;;;;5075364;28;20024;-79
2021/06/26 04:12:00;;;;;;;14.52;4.18;;;21.30;99.90;;;;;;5076798;28;20021;-80
2021/06/26 04:14:26;;;;;;;19.77;4.88;;;21.30;99.90;;;;;;5076400;28;20028;-80
2021/06/26 04:16:52;;;;;;;17.42;4.97;;;21.50;99.90;;;;;;5075333;28;20027;-79
2021/06/26 04:19:18;;;;;;;17.40;5.50;;;21.20;99.90;;;;;;5075308;28;20474;-80
2021/06/26 04:21:44;;;;;;;14.15;5.20;;;21.30;99.90;;;;;;5075416;28;20025;-80
2021/06/26 04:24:10;;;;;;;20.27;5.63;;;21.50;99.90;;;;;;5075105;28;20097;-79
2021/06/26 04:26:36;;;;;;;16.52;4.97;;;21.40;99.90;;;;;;5075356;28;20050;-79
2021/06/26 04:29:02;;;;;;;18.70;5.40;;;21.50;99.90;;;;;;5076320;28;20382;-79
2021/06/26 04:31:28;;;;;;;15.15;5.47;;;21.60;99.90;;;;;;5076582;28;20024;-79
2021/06/26 04:33:54;;;;;;;17.67;5.30;;;21.70;99.90;;;;;;5076045;28;20025;-79
2021/06/26 04:36:20;;;;;;;16.40;4.97;;;21.90;99.90;;;;;;5076467;28;20031;-79
2021/06/26 04:38:46;;;;;;;16.70;5.63;;;21.80;99.90;;;;;;5076434;28;20070;-79
2021/06/26 04:41:13;;;;;;;15.27;5.40;;;21.80;99.90;;;;;;5076058;28;20540;-79
2021/06/26 04:43:39;;;;;;;17.23;5.45;;;21.80;99.90;;;;;;5075382;28;20111;-78
2021/06/26 04:46:09;;;;;;;16.02;5.10;;;21.90;99.90;;;;;;5074389;28;20405;-79
2021/06/26 04:48:37;;;;;;;18.58;5.88;;;21.90;99.90;;;;;;5076105;28;20021;-78
2021/06/26 04:51:03;;;;;;;13.88;5.55;;;21.90;99.90;;;;;;5076360;28;20020;-79
2021/06/26 04:53:29;;;;;;;15.48;5.43;;;22.00;99.90;;;;;;5076054;28;20561;-79
2021/06/26 04:55:55;;;;;;;15.77;6.15;;;22.10;99.90;;;;;;5076103;28;20055;-78
2021/06/26 04:58:23;;;;;;;14.77;5.75;;;22.10;99.90;;;;;;5074446;28;20031;-78
2021/06/26 05:00:50;;;;;;;15.45;5.25;;;22.30;99.90;;;;;;5076076;28;20370;-78
2021/06/26 05:03:21;;;;;;;14.75;5.35;;;22.30;99.90;;;;;;5076060;28;20078;-78
2021/06/26 05:05:48;;;;;;;16.40;5.68;;;22.30;99.90;;;;;;5075788;28;20025;-79
2021/06/26 05:08:14;;;;;;;19.88;5.60;;;22.20;99.90;;;;;;5075872;28;20016;-78
2021/06/26 05:10:40;;;;;;;13.82;5.35;;;22.30;99.90;;;;;;5075563;28;20375;-78
2021/06/26 05:13:07;;;;;;;15.00;5.32;;;22.50;99.90;;;;;;5074275;28;20042;-80
2021/06/26 05:15:33;;;;;;;16.05;5.18;;;22.40;99.90;;;;;;5075533;28;20021;-79
2021/06/26 05:17:59;;;;;;;16.52;4.70;;;22.50;99.90;;;;;;5074343;28;20025;-79
2021/06/26 05:20:25;;;;;;;18.90;5.40;;;22.60;99.90;;;;;;5074256;28;20020;-79
2021/06/26 05:22:52;;;;;;;14.32;4.65;;;22.70;99.90;;;;;;5073973;28;20049;-78
2021/06/26 05:25:18;;;;;;;16.65;4.45;;;22.70;99.90;;;;;;5074328;28;20020;-79
2021/06/26 05:27:44;;;;;;;16.45;4.18;;;22.80;99.90;;;;;;5075277;28;20021;-79
2021/06/26 05:30:11;;;;;;;10.98;4.00;;;22.90;99.90;;;;;;5075800;28;20032;-78
2021/06/26 05:32:37;;;;;;;17.52;4.32;;;23.00;99.90;;;;;;5075357;28;20498;-79
2021/06/26 05:35:04;;;;;;;16.00;3.83;;;22.90;99.90;;;;;;5075426;28;20029;-80
2021/06/26 05:37:31;;;;;;;11.70;3.78;;;23.00;99.90;;;;;;5075450;28;20436;-80
2021/06/26 05:39:57;;;;;;;11.57;3.90;;;23.30;99.90;;;;;;5073718;28;20042;-79
2021/06/26 05:42:23;;;;;;;14.52;3.83;;;23.10;99.90;;;;;;5075566;28;20024;-79
2021/06/26 05:44:49;;;;;;;10.52;4.15;;;23.20;99.90;;;;;;5073793;28;20048;-79
2021/06/26 05:47:15;;;;;;;10.57;3.90;;;23.30;99.90;;;;;;5073799;28;20112;-80
2021/06/26 05:49:41;;;;;;;9.15;3.83;;;23.50;99.90;;;;;;5073720;28;20508;-79
2021/06/26 05:52:07;;;;;;;11.88;3.92;;;23.50;99.90;;;;;;5073948;28;20051;-80
2021/06/26 05:54:34;;;;;;;11.45;4.32;;;23.40;99.90;;;;;;5074780;28;20032;-79
2021/06/26 05:57:01;;;;;;;9.75;3.80;;;23.40;99.90;;;;;;5074002;28;20020;-79
2021/06/26 05:59:28;;;;;;;11.88;3.92;;;23.60;99.90;;;;;;5073595;28;20505;-83
2021/06/26 06:01:54;;;;;;;12.43;3.80;;;23.60;99.90;;;;;;5074185;28;20048;-80
2021/06/26 06:04:20;;;;;;;9.45;3.67;;;23.60;99.90;;;;;;5073428;28;20052;-78
2021/06/26 06:06:46;;;;;;;11.80;3.78;;;23.90;99.90;;;;;;5073402;28;20505;-82
2021/06/26 06:09:12;;;;;;;8.18;3.70;;;24.10;99.90;;;;;;5073568;28;20064;-76
2021/06/26 06:11:38;;;;;;;11.55;3.38;;;24.10;99.90;;;;;;5073794;28;20051;-78
2021/06/26 06:14:03;;;;;;;9.27;3.70;;;24.20;99.90;;;;;;5073124;28;20386;-78
2021/06/26 06:16:29;;;;;;;12.63;4.03;;;24.20;99.90;;;;;;5074339;28;20021;-82
2021/06/26 06:18:55;;;;;;;10.30;3.65;;;24.30;99.90;;;;;;5073261;28;20021;-81
2021/06/26 06:21:22;;;;;;;8.50;3.10;;;24.50;99.90;;;;;;5073254;28;20085;-81
2021/06/26 06:23:48;;;;;;;9.98;3.67;;;24.40;99.90;;;;;;5073804;28;20052;-81
2021/06/26 06:26:14;;;;;;;9.00;3.55;;;24.70;99.90;;;;;;5073039;28;20017;-80
2021/06/26 06:28:40;;;;;;;9.25;3.50;;;24.70;99.90;;;;;;5074468;28;20028;-80
2021/06/26 06:31:06;;;;;;;9.65;3.60;;;24.60;99.90;;;;;;5073148;28;20020;-77
2021/06/26 06:33:33;;;;;;;10.07;3.45;;;24.80;99.90;;;;;;5074440;28;20103;-80
2021/06/26 06:36:00;;;;;;;12.50;3.60;;;24.90;99.90;;;;;;5072592;28;20033;-82
2021/06/26 06:38:26;;;;;;;8.77;3.33;;;25.00;99.90;;;;;;5072930;28;20104;-80
2021/06/26 06:40:52;;;;;;;8.48;3.40;;;25.00;99.90;;;;;;5074019;28;20108;-80
2021/06/26 06:43:18;;;;;;;13.05;3.50;;;25.20;99.90;;;;;;5073816;28;20107;-81
2021/06/26 06:45:46;;;;;;;9.32;3.63;;;25.10;99.90;;;;;;5072572;28;20023;-82
2021/06/26 06:48:11;;;;;;;8.40;3.20;;;25.20;99.90;;;;;;5072658;28;20024;-77
2021/06/26 06:50:37;;;;;;;7.28;3.33;;;25.50;99.90;;;;;;5072785;28;20020;-86
2021/06/26 06:53:03;;;;;;;8.23;3.28;;;25.50;99.90;;;;;;5088620;28;20486;-79
2021/06/26 06:55:30;;;;;;;14.88;3.95;;;25.60;99.90;;;;;;5084521;28;20837;-81
2021/06/26 06:57:56;;;;;;;11.02;3.70;;;25.50;99.90;;;;;;5073550;28;20056;-79
2021/06/26 07:00:22;;;;;;;13.85;6.15;;;25.30;99.90;;;;;;5072988;28;20029;-80
2021/06/26 07:02:48;;;;;;;10.13;4.05;;;25.30;99.90;;;;;;5073843;28;20074;-83
2021/06/26 07:05:14;;;;;;;9.30;3.63;;;25.40;99.90;;;;;;5073981;28;20028;-80
2021/06/26 07:07:40;;;;;;;7.78;3.30;;;25.50;99.90;;;;;;5073719;28;20025;-77
2021/06/26 07:10:07;;;;;;;8.38;3.38;;;25.70;99.90;;;;;;5074207;28;20370;-80
2021/06/26 07:12:33;;;;;;;6.93;3.08;;;25.80;99.90;;;;;;5073332;28;20024;-79
2021/06/26 07:14:59;;;;;;;9.38;3.38;;;26.00;99.90;;;;;;5073692;28;20085;-79
2021/06/26 07:17:25;;;;;;;7.43;3.30;;;26.30;99.90;;;;;;5073134;28;20482;-79
2021/06/26 07:19:50;;;;;;;11.43;3.72;;;26.20;99.90;;;;;;5075182;28;20107;-79
2021/06/26 07:22:17;;;;;;;11.25;3.58;;;26.20;99.90;;;;;;5073805;28;20117;-78
2021/06/26 07:24:43;;;;;;;9.90;3.30;;;25.80;99.90;;;;;;5071988;28;20044;-77
2021/06/26 07:27:10;;;;;;;10.57;3.13;;;26.10;99.90;;;;;;5072732;28;20048;-77
2021/06/26 07:29:36;;;;;;;12.07;3.17;;;26.30;99.90;;;;;;5072425;28;20493;-77
2021/06/26 07:32:03;;;;;;;8.77;3.45;;;25.80;99.90;;;;;;5073972;28;20099;-79
2021/06/26 07:34:29;;;;;;;9.30;3.33;;;26.00;99.90;;;;;;5072263;28;20024;-77
2021/06/26 07:36:54;;;;;;;9.35;3.60;;;26.40;99.90;;;;;;5074200;28;20031;-78
2021/06/26 07:39:21;;;;;;;10.82;3.40;;;26.60;99.90;;;;;;5073736;28;20065;-77
2021/06/26 07:41:47;;;;;;;7.80;3.47;;;26.50;99.90;;;;;;5073577;28;20021;-77
2021/06/26 07:44:13;;;;;;;9.90;3.80;;;26.30;99.90;;;;;;5074044;28;20108;-77
2021/06/26 07:46:39;;;;;;;10.18;3.40;;;26.60;99.90;;;;;;5073686;28;20021;-78
2021/06/26 07:49:05;;;;;;;12.15;3.50;;;26.50;99.90;;;;;;5071799;28;20111;-78
2021/06/26 07:51:31;;;;;;;6.68;3.00;;;26.40;99.90;;;;;;5073545;28;20032;-78
2021/06/26 07:53:57;;;;;;;10.20;3.50;;;26.40;99.90;;;;;;5073418;28;20025;-76
2021/06/26 07:56:23;;;;;;;9.15;3.45;;;26.10;99.90;;;;;;5073798;28;20470;-77
2021/06/26 07:58:49;;;;;;;10.80;3.67;;;26.00;99.90;;;;;;5073560;28;20029;-77
2021/06/26 08:01:16;;;;;;;11.80;3.55;;;25.90;99.90;;;;;;5071601;28;20028;-77
2021/06/26 08:03:42;;;;;;;13.02;3.60;;;25.90;99.90;;;;;;5081159;28;20036;-78
2021/06/26 08:06:11;;;;;;;9.32;3.38;;;26.00;99.90;;;;;;5085435;28;20501;-78
2021/06/26 08:08:37;;;;;;;7.97;3.60;;;26.00;99.90;;;;;;5094077;28;20048;-78
2021/06/26 08:11:06;;;;;;;8.98;3.20;;;26.20;99.90;;;;;;5091918;28;20082;-78
2021/06/26 08:13:35;;;;;;;9.93;3.40;;;26.30;99.90;;;;;;5092924;28;20158;-76
2021/06/26 08:16:01;;;;;;;8.30;3.58;;;26.50;99.90;;;;;;5093908;28;20081;-76
2021/06/26 08:18:27;;;;;;;11.32;3.63;;;26.90;99.90;;;;;;5093394;28;20020;-77
2021/06/26 08:20:53;;;;;;;10.30;3.40;;;27.40;99.90;;;;;;5094938;28;20020;-77
2021/06/26 08:23:19;;;;;;;10.88;3.42;;;27.70;99.90;;;;;;5096623;28;20055;-78
2021/06/26 08:25:45;;;;;;;12.35;3.70;;;27.50;99.90;;;;;;5095473;28;20020;-75
2021/06/26 08:28:11;;;;;;;9.18;3.50;;;27.70;99.70;;;;;;5097159;28;20097;-74
2021/06/26 08:30:36;;;;;;;13.23;3.70;;;28.00;98.70;;;;;;5096506;28;20051;-76
2021/06/26 08:33:04;;;;;;;12.30;3.75;;;27.90;99.90;;;;;;5096598;28;20466;-75
2021/06/26 08:35:30;;;;;;;8.93;3.50;;;27.80;98.70;;;;;;5095061;28;20028;-75
2021/06/26 08:37:56;;;;;;;12.45;3.72;;;28.00;98.50;;;;;;5095031;28;20115;-76
2021/06/26 08:40:22;;;;;;;9.32;3.58;;;27.90;98.30;;;;;;5096287;28;20521;-76
2021/06/26 08:42:49;;;;;;;10.65;3.42;;;28.30;97.30;;;;;;5096354;28;20043;-77
2021/06/26 08:45:18;;;;;;;14.07;3.78;;;28.30;98.00;;;;;;5095234;28;20035;-77
2021/06/26 08:47:49;;;;;;;7.78;3.70;;;28.60;98.30;;;;;;5095084;28;20077;-77
2021/06/26 08:50:17;;;;;;;9.95;3.80;;;28.50;97.20;;;;;;5095021;28;20027;-77
2021/06/26 08:52:44;;;;;;;9.00;3.30;;;28.30;97.70;;;;;;5096425;28;20027;-76
2021/06/26 08:55:11;;;;;;;10.40;3.53;;;27.80;98.00;;;;;;5093608;28;20024;-76
2021/06/26 08:57:39;;;;;;;11.18;3.88;;;27.40;98.40;;;;;;5075870;28;20489;-78
2021/06/26 09:00:12;;;;;;;10.02;3.80;;;27.30;99.10;;;;;;5075813;28;20020;-78
2021/06/26 09:02:38;;;;;;;10.47;3.60;;;27.50;98.60;;;;;;5076171;28;20025;-73
2021/06/26 09:05:05;;;;;;;8.32;3.60;;;27.90;97.70;;;;;;5075935;28;20036;-77
2021/06/26 09:07:34;;;;;;;9.55;3.92;;;28.20;97.70;;;;;;5075615;28;20047;-78
2021/06/26 09:10:15;;;;;;;8.32;3.40;;;28.30;98.70;;;;;;5076134;28;20103;-76
2021/06/26 09:12:45;;;;;;;9.57;3.42;;;28.10;98.10;;;;;;5075947;28;20118;-77
2021/06/26 09:15:22;;;;;;;10.15;3.60;;;28.50;98.50;;;;;;5075844;28;20104;-75
2021/06/26 09:17:48;;;;;;;8.02;3.40;;;28.90;96.70;;;;;;5074976;28;20019;-75
2021/06/26 09:20:14;;;;;;;8.90;3.60;;;28.30;95.40;;;;;;5075276;28;20095;-77
2021/06/26 09:22:42;;;;;;;8.43;3.25;;;28.00;97.10;;;;;;5075568;28;20021;-77
2021/06/26 09:25:38;;;;;;;9.35;3.22;;;28.40;97.60;;;;;;5075689;28;20413;-76
2021/06/26 09:28:09;;;;;;;8.20;3.40;;;28.70;97.10;;;;;;5067352;28;20044;-78
2021/06/26 09:30:43;;;;;;;10.18;3.10;;;28.80;96.00;;;;;;5075702;28;20021;-78
2021/06/26 09:33:20;;;;;;;7.97;3.50;;;29.30;95.80;;;;;;5075471;28;20462;-78
2021/06/26 09:36:09;;;;;;;7.45;2.95;;;29.40;95.00;;;;;;5075240;28;20103;-77
2021/06/26 09:38:53;;;;;;;7.32;3.00;;;29.40;94.40;;;;;;5075228;28;20021;-78
2021/06/26 09:41:19;;;;;;;11.60;3.28;;;29.50;95.50;;;;;;5073795;28;20017;-76
2021/06/26 09:43:45;;;;;;;7.38;3.33;;;29.80;96.10;;;;;;5075155;28;20017;-77
2021/06/26 09:46:17;;;;;;;8.25;3.28;;;29.70;95.40;;;;;;5073474;28;20028;-77
2021/06/26 09:48:52;;;;;;;8.25;3.38;;;30.00;93.90;;;;;;5073588;28;20029;-76
2021/06/26 09:51:26;;;;;;;8.63;3.50;;;30.00;93.30;;;;;;5075148;28;20028;-77
2021/06/26 09:53:57;;;;;;;7.18;2.97;;;29.90;93.40;;;;;;5075240;28;20451;-73
2021/06/26 09:56:24;;;;;;;9.90;3.10;;;29.80;92.50;;;;;;5074805;28;20036;-74
2021/06/26 09:58:53;;;;;;;8.82;3.00;;;30.00;92.20;;;;;;5074697;28;20104;-75
2021/06/26 10:01:21;;;;;;;9.05;3.17;;;30.60;92.90;;;;;;5073273;28;20074;-74
2021/06/26 10:03:50;;;;;;;8.95;3.25;;;30.10;92.90;;;;;;5074492;28;20362;-76
2021/06/26 10:06:20;;;;;;;7.13;3.10;;;30.40;93.20;;;;;;5073335;28;20029;-76
2021/06/26 10:08:46;;;;;;;6.05;3.25;;;30.80;92.00;;;;;;5074494;28;20047;-76
2021/06/26 10:11:13;;;;;;;7.15;3.13;;;30.80;91.70;;;;;;5074563;28;20359;-74
2021/06/26 10:13:43;;;;;;;7.78;3.15;;;30.40;91.20;;;;;;5074420;28;20132;-76
2021/06/26 10:16:09;;;;;;;6.13;3.08;;;31.10;91.60;;;;;;5074810;28;20036;-77
2021/06/26 10:18:35;;;;;;;6.75;3.15;;;31.10;90.20;;;;;;5074504;28;20020;-77
2021/06/26 10:21:03;;;;;;;6.60;3.08;;;30.60;91.20;;;;;;5074533;28;20474;-75
2021/06/26 10:23:36;;;;;;;8.55;2.80;;;30.40;91.90;;;;;;5073814;28;20101;-76
2021/06/26 10:26:03;;;;;;;7.32;3.03;;;30.00;91.80;;;;;;5074284;28;20017;-74
2021/06/26 10:28:29;;;;;;;6.13;3.05;;;29.70;92.20;;;;;;5074012;28;20032;-77
2021/06/26 10:31:06;;;;;;;7.57;2.70;;;30.10;92.50;;;;;;5074223;28;20458;-77
2021/06/26 10:33:32;;;;;;;7.68;3.03;;;30.60;92.80;;;;;;5072638;28;20047;-76
2021/06/26 10:36:00;;;;;;;9.82;3.10;;;30.90;90.90;;;;;;5074182;28;20028;-75
2021/06/26 10:38:39;;;;;;;5.78;2.80;;;30.80;90.00;;;;;;5074618;28;20028;-76
2021/06/26 10:41:19;;;;;;;7.15;3.40;;;31.00;89.10;;;;;;5074185;28;20016;-75
2021/06/26 10:43:58;;;;;;;6.43;2.90;;;31.10;88.60;;;;;;5071391;28;20027;-74
2021/06/26 10:46:24;;;;;;;6.18;2.88;;;31.20;89.50;;;;;;5071759;28;20021;-74
2021/06/26 10:48:58;;;;;;;6.75;2.97;;;30.90;89.00;;;;;;5070455;28;20474;-74
2021/06/26 10:51:34;;;;;;;7.80;3.20;;;30.60;90.40;;;;;;5071517;28;20028;-74
2021/06/26 10:54:17;;;;;;;5.45;2.50;;;30.50;90.00;;;;;;5071680;28;20032;-74
2021/06/26 10:56:45;;;;;;;8.30;2.60;;;30.10;90.70;;;;;;5071862;28;20536;-74
2021/06/26 10:59:14;;;;;;;7.13;2.72;;;30.30;90.30;;;;;;5072193;28;20043;-75
2021/06/26 11:01:55;;;;;;;6.35;2.65;;;30.10;89.30;;;;;;5074349;28;20369;-76
2021/06/26 11:04:21;;;;;;;7.18;3.28;;;30.30;91.20;;;;;;5073892;28;20013;-74
2021/06/26 11:06:53;;;;;;;8.05;2.78;;;30.00;90.90;;;;;;5074296;28;20052;-76
2021/06/26 11:09:19;;;;;;;8.43;2.83;;;29.90;91.10;;;;;;5073576;28;20082;-75
2021/06/26 11:11:50;;;;;;;10.90;3.05;;;29.60;90.90;;;;;;5073346;28;20078;-76
2021/06/26 11:14:21;;;;;;;7.97;3.50;;;29.50;91.80;;;;;;5073682;28;20070;-74
2021/06/26 11:16:58;;;;;;;6.40;2.78;;;29.80;90.80;;;;;;5073966;28;20433;-76
2021/06/26 11:19:29;;;;;;;5.20;2.60;;;30.20;93.80;;;;;;5074187;28;20074;-75
2021/06/26 11:21:57;;;;;;;5.63;2.67;;;30.80;92.00;;;;;;5072279;28;20111;-74
2021/06/26 11:24:42;;;;;;;7.07;2.70;;;31.20;88.80;;;;;;5073079;28;20055;-76
2021/06/26 11:27:14;;;;;;;5.68;3.00;;;31.30;88.60;;;;;;5073352;28;20032;-75
2021/06/26 11:29:45;;;;;;;6.57;2.60;;;30.70;88.60;;;;;;5073837;28;20048;-76
2021/06/26 11:32:20;;;;;;;4.07;2.45;;;30.60;90.90;;;;;;5073847;28;20100;-74
2021/06/26 11:35:14;;;;;;;6.65;3.00;;;30.20;90.80;;;;;;5073290;28;20035;-76
2021/06/26 11:37:43;;;;;;;6.43;2.75;;;29.80;90.80;;;;;;5070413;28;20155;-77
2021/06/26 11:40:22;;;;;;;7.15;2.92;;;29.90;88.50;;;;;;5073354;28;20040;-73
2021/06/26 11:43:03;;;;;;;5.32;2.40;;;30.20;90.00;;;;;;5073683;28;20024;-75
2021/06/26 11:45:31;;;;;;;8.95;2.55;;;30.90;90.20;;;;;;5073349;28;20111;-75
2021/06/26 11:48:18;;;;;;;4.50;2.30;;;31.00;88.30;;;;;;5073377;28;20020;-77
2021/06/26 11:50:50;;;;;;;7.90;2.20;;;30.80;85.40;;;;;;5073053;28;20100;-76
2021/06/26 11:53:17;;;;;;;6.05;2.30;;;30.80;84.70;;;;;;5073213;28;20056;-76
2021/06/26 11:56:01;;;;;;;6.03;2.50;;;30.60;84.10;;;;;;5073385;28;20109;-76
2021/06/26 11:58:39;;;;;;;;;;;30.30;84.50;;;;;;5077298;28;20024;-77
2021/06/26 12:01:08;;;;;;;5.50;2.78;;;30.20;83.90;;;;;;5077877;28;20388;-74
2021/06/26 12:03:35;;;;;;;7.35;2.85;;;30.60;88.10;;;;;;5093767;28;20020;-77
2021/06/26 12:06:12;;;;;;;10.40;2.90;;;30.50;87.80;;;;;;5096164;28;20124;-74
2021/06/26 12:08:45;;;;;;;9.00;2.53;;;30.60;86.30;;;;;;5094991;28;20035;-74
2021/06/26 12:11:13;;;;;;;5.37;2.60;;;30.70;90.10;;;;;;5094292;28;20032;-73
2021/06/26 12:13:44;;;;;;;7.57;2.70;;;30.70;88.10;;;;;;5094456;28;20373;-74
2021/06/26 12:16:21;;;;;;;4.10;2.33;;;31.10;87.00;;;;;;5093703;28;20476;-73
2021/06/26 12:18:47;;;;;;;5.50;2.50;;;30.80;84.00;;;;;;5094704;28;20020;-74
2021/06/26 12:21:13;;;;;;;4.18;2.40;;;30.60;85.40;;;;;;5094710;28;20624;-73
2021/06/26 12:23:50;;;;;;;6.60;2.10;;;30.70;84.10;;;;;;5096898;28;20048;-80
2021/06/26 12:26:18;;;;;;;4.03;2.28;;;30.30;80.60;;;;;;5095579;28;20016;-80
2021/06/26 12:28:45;;;;;;;6.95;2.55;;;30.10;82.40;;;;;;5096654;28;20485;-79
2021/06/26 12:31:11;;;;;;;6.10;2.30;;;29.80;81.80;;;;;;5096504;28;20528;-80
2021/06/26 12:33:38;;;;;;;4.13;2.35;;;30.30;87.20;;;;;;5096781;28;20535;-80
2021/06/26 12:36:18;;;;;;;6.40;2.38;;;30.90;85.00;;;;;;5094972;28;20422;-80
2021/06/26 12:38:45;;;;;;;5.75;2.60;;;31.40;83.20;;;;;;5094557;28;20054;-79
2021/06/26 12:41:26;;;;;;;10.70;2.72;;;31.50;82.40;;;;;;5095052;28;20095;-72
2021/06/26 12:43:56;;;;;;;7.28;2.40;;;31.00;82.60;;;;;;5095143;28;20492;-73